Woodville, Mississippi
Current Conditions -  °F | °C
As of 3:35 AM on Thursday 18 Dec 2014 (Local Time) from KHZR Reporting Station
Overcast Overcast  
Wind Chill: 47°   Ceiling: 3400
Heat Index: 47°   Visibility: 10mi
Dew Point: 44°   Wind: 3mph
Humidity: 87%   Direction: 30°NNE
Pressure: 30.17"   Gusts: NA
Location:  31.1°N, 91.3°W
Report Text: KHZR 180935Z AUTO 03003KT 10SM BKN034 BKN040 OVC120 09/07 A3017 RMK AO2 T00860066
Loading
Personal Weather Stations






























Interactive Weather Map New forecast layout! Learn more

10-Day Weather Forecast

Advertisements
Track Severe Weather on mobile